Time;durP1;ratioP1;P1;durP2;ratioP2;P2;SDS_P1;SDS_P2;PMS_P1;PMS_P2;Temp;Humidity;BMP_temperature;BMP_pressure;BME280_temperature;BME280_humidity;BME280_pressure;Samples;Min_cycle;Max_cycle;Signal;HPM_P1;HPM_P2
2023/01/21 00:01:43;;;;;;;;;;;17.70;63.90;;;;;;5028483;28;1267;-70
2023/01/21 00:04:08;;;;;;;;;;;17.60;63.90;;;;;;5022243;28;847;-70
2023/01/21 00:06:35;;;;;;;;;;;17.60;63.90;;;;;;5018559;28;1299;-70
2023/01/21 00:09:01;;;;;;;;;;;17.60;63.90;;;;;;5023179;28;1279;-71
2023/01/21 00:11:27;;;;;;;;;;;17.60;64.00;;;;;;5024793;28;929;-71
2023/01/21 00:13:52;;;;;;;;;;;17.60;64.00;;;;;;5019457;28;814;-71
2023/01/21 00:16:18;;;;;;;;;;;17.60;64.00;;;;;;5023707;28;1965;-71
2023/01/21 00:18:46;;;;;;;;;;;17.60;64.00;;;;;;5021619;28;1319;-71
2023/01/21 00:21:11;;;;;;;;;;;17.60;64.00;;;;;;5026609;28;828;-71
2023/01/21 00:23:37;;;;;;;;;;;17.60;64.10;;;;;;5025727;28;1058;-71
2023/01/21 00:26:03;;;;;;;;;;;17.60;64.00;;;;;;5020703;28;866;-71
2023/01/21 00:28:29;;;;;;;;;;;17.60;64.10;;;;;;5055779;28;1288;-71
2023/01/21 00:30:58;;;;;;;;;;;17.60;64.10;;;;;;5012569;28;1189;-71
2023/01/21 00:33:23;;;;;;;;;;;17.60;64.10;;;;;;5053185;28;954;-70
2023/01/21 00:35:59;;;;;;;;;;;17.60;64.10;;;;;;5021367;28;1914;-72
2023/01/21 00:38:24;;;;;;;;;;;17.60;64.10;;;;;;5043136;28;1317;-72
2023/01/21 00:40:49;;;;;;;;;;;17.60;64.10;;;;;;5021917;28;822;-71
2023/01/21 00:43:15;;;;;;;;;;;17.60;64.10;;;;;;5019418;28;896;-71
2023/01/21 00:45:40;;;;;;;;;;;17.60;64.10;;;;;;5022459;28;1207;-71
2023/01/21 00:48:06;;;;;;;;;;;17.60;64.10;;;;;;5021513;28;1286;-71
2023/01/21 00:50:31;;;;;;;;;;;17.60;64.20;;;;;;5022059;28;905;-71
2023/01/21 00:52:57;;;;;;;;;;;17.60;64.20;;;;;;5021967;28;856;-71
2023/01/21 00:55:22;;;;;;;;;;;17.60;64.20;;;;;;5021146;28;1898;-72
2023/01/21 00:57:48;;;;;;;;;;;17.60;64.20;;;;;;5019202;28;1285;-71
2023/01/21 01:00:14;;;;;;;;;;;17.60;64.20;;;;;;5019328;28;863;-71
2023/01/21 01:02:40;;;;;;;;;;;17.60;64.20;;;;;;5024109;28;848;-71
2023/01/21 01:05:07;;;;;;;;;;;17.60;64.20;;;;;;5021690;28;1362;-72
2023/01/21 01:07:33;;;;;;;;;;;17.60;64.20;;;;;;5024296;28;1314;-71
2023/01/21 01:09:58;;;;;;;;;;;17.60;64.30;;;;;;5019871;28;832;-71
2023/01/21 01:12:23;;;;;;;;;;;17.60;64.30;;;;;;5052139;28;850;-71
2023/01/21 01:14:49;;;;;;;;;;;17.60;64.30;;;;;;5020480;28;1974;-71
2023/01/21 01:17:14;;;;;;;;;;;17.60;64.30;;;;;;5027026;28;1319;-71
2023/01/21 01:19:40;;;;;;;;;;;17.60;64.30;;;;;;5015459;28;805;-71
2023/01/21 01:22:05;;;;;;;;;;;17.60;64.30;;;;;;5029646;28;1862;-71
2023/01/21 01:24:31;;;;;;;;;;;17.60;64.30;;;;;;5018071;28;1017;-71
2023/01/21 01:26:56;;;;;;;;;;;17.60;64.30;;;;;;5017726;28;1292;-71
2023/01/21 01:29:22;;;;;;;;;;;17.60;64.30;;;;;;5020502;28;792;-71
2023/01/21 01:31:47;;;;;;;;;;;17.60;64.30;;;;;;5020208;28;959;-72
2023/01/21 01:34:13;;;;;;;;;;;17.60;64.30;;;;;;5022524;28;1424;-69
2023/01/21 01:36:38;;;;;;;;;;;17.60;64.30;;;;;;5020401;28;1910;-71
2023/01/21 01:39:04;;;;;;;;;;;17.60;64.30;;;;;;5018275;28;1684;-71
2023/01/21 01:41:30;;;;;;;;;;;17.60;64.30;;;;;;5021105;28;1181;-72
2023/01/21 01:44:05;;;;;;;;;;;17.50;64.30;;;;;;5020348;28;1100;-72
2023/01/21 01:46:31;;;;;;;;;;;17.50;64.30;;;;;;5050975;28;1237;-71
2023/01/21 01:49:08;;;;;;;;;;;17.60;64.40;;;;;;5054598;28;940;-71
2023/01/21 01:51:36;;;;;;;;;;;17.60;64.40;;;;;;5021032;28;876;-71
2023/01/21 01:54:02;;;;;;;;;;;17.50;64.30;;;;;;5035421;28;850;-72
2023/01/21 01:56:27;;;;;;;;;;;17.50;64.30;;;;;;5019567;28;1915;-71
2023/01/21 01:58:53;;;;;;;;;;;17.50;64.40;;;;;;5048543;28;926;-72
2023/01/21 02:01:18;;;;;;;;;;;17.50;64.30;;;;;;5017645;28;807;-72
2023/01/21 02:03:44;;;;;;;;;;;17.50;64.30;;;;;;5051029;28;1366;-72
2023/01/21 02:06:13;;;;;;;;;;;17.50;64.30;;;;;;5018277;28;816;-71
2023/01/21 02:08:39;;;;;;;;;;;17.50;64.40;;;;;;5017128;28;1251;-71
2023/01/21 02:11:15;;;;;;;;;;;17.50;64.40;;;;;;5020154;28;1249;-71
2023/01/21 02:13:41;;;;;;;;;;;17.50;64.40;;;;;;5019697;28;833;-71
2023/01/21 02:16:18;;;;;;;;;;;17.50;64.40;;;;;;5019090;28;1926;-72
2023/01/21 02:18:50;;;;;;;;;;;17.50;64.40;;;;;;5022450;28;1529;-70
2023/01/21 02:21:31;;;;;;;;;;;17.50;64.40;;;;;;5051348;28;1351;-71
2023/01/21 02:24:15;;;;;;;;;;;17.50;64.40;;;;;;5024063;28;1395;-71
2023/01/21 02:26:43;;;;;;;;;;;17.50;64.40;;;;;;5018959;28;1844;-71
2023/01/21 02:29:37;;;;;;;;;;;17.50;64.50;;;;;;5019646;28;1429;-71
2023/01/21 02:32:05;;;;;;;;;;;17.50;64.50;;;;;;5018202;28;1609;-70
2023/01/21 02:34:31;;;;;;;;;;;17.50;64.50;;;;;;5024559;28;1949;-71
2023/01/21 02:37:02;;;;;;;;;;;17.50;64.40;;;;;;5020480;28;1411;-71
2023/01/21 02:39:37;;;;;;;;;;;17.50;64.40;;;;;;5022503;28;1599;-69
2023/01/21 02:42:04;;;;;;;;;;;17.50;64.50;;;;;;5024418;28;1397;-70
2023/01/21 02:44:39;;;;;;;;;;;17.50;64.50;;;;;;5009896;28;1343;-71
2023/01/21 02:47:17;;;;;;;;;;;17.50;64.50;;;;;;5023670;28;1450;-71
2023/01/21 02:49:46;;;;;;;;;;;17.50;64.50;;;;;;5039347;28;1312;-72
2023/01/21 02:52:18;;;;;;;;;;;17.50;64.50;;;;;;5049782;28;1015;-73
2023/01/21 02:54:48;;;;;;;;;;;17.50;64.50;;;;;;5013873;28;1898;-73
2023/01/21 02:57:15;;;;;;;;;;;17.50;64.50;;;;;;5050587;28;1287;-74
2023/01/21 02:59:41;;;;;;;;;;;17.50;64.50;;;;;;5051083;28;843;-74
2023/01/21 03:02:25;;;;;;;;;;;17.50;65.30;;;;;;5016940;28;856;-72
2023/01/21 03:05:08;;;;;;;;;;;17.50;64.50;;;;;;5020691;28;1267;-71
2023/01/21 03:07:34;;;;;;;;;;;17.50;64.60;;;;;;5024670;28;1353;-72
2023/01/21 03:10:20;;;;;;;;;;;17.50;64.60;;;;;;5021122;28;853;-72
2023/01/21 03:12:54;;;;;;;;;;;17.50;64.60;;;;;;5027899;28;1125;-71
2023/01/21 03:18:12;;;;;;;;;;;17.50;64.60;;;;;;5046848;28;1393;-72
2023/01/21 03:20:45;;;;;;;;;;;17.50;64.60;;;;;;5019711;28;814;-70
2023/01/21 03:23:12;;;;;;;;;;;17.50;64.60;;;;;;5020540;28;907;-71
2023/01/21 03:25:38;;;;;;;;;;;17.50;64.60;;;;;;5021104;28;903;-71
2023/01/21 03:28:05;;;;;;;;;;;17.50;64.60;;;;;;5038306;28;1418;-72
2023/01/21 03:30:30;;;;;;;;;;;17.50;64.60;;;;;;5022651;28;1030;-72
2023/01/21 03:32:56;;;;;;;;;;;17.50;64.60;;;;;;5022309;28;812;-71
2023/01/21 03:35:23;;;;;;;;;;;17.50;64.60;;;;;;5051585;28;1957;-71
2023/01/21 03:37:51;;;;;;;;;;;17.50;64.60;;;;;;5036362;28;1275;-71
2023/01/21 03:40:27;;;;;;;;;;;17.50;64.60;;;;;;5052034;28;1045;-71
2023/01/21 03:42:55;;;;;;;;;;;17.50;64.60;;;;;;5053747;28;883;-71
2023/01/21 03:45:40;;;;;;;;;;;17.50;64.60;;;;;;5041447;28;1403;-71
2023/01/21 03:48:09;;;;;;;;;;;17.50;64.60;;;;;;5014089;28;1256;-70
2023/01/21 03:50:39;;;;;;;;;;;17.50;64.60;;;;;;5051705;28;898;-71
2023/01/21 03:53:05;;;;;;;;;;;17.50;64.60;;;;;;5042233;28;868;-70
2023/01/21 03:55:30;;;;;;;;;;;17.50;64.60;;;;;;5027230;28;1890;-70
2023/01/21 03:57:55;;;;;;;;;;;17.50;64.60;;;;;;5037950;28;1276;-71
2023/01/21 04:00:21;;;;;;;;;;;17.50;64.60;;;;;;5022332;28;1379;-69
2023/01/21 04:02:46;;;;;;;;;;;17.50;64.60;;;;;;5020959;28;827;-70
2023/01/21 04:05:13;;;;;;;;;;;17.50;64.60;;;;;;5019799;28;957;-70
2023/01/21 04:07:38;;;;;;;;;;;17.50;64.60;;;;;;4986633;28;1096330;-70
2023/01/21 04:10:04;;;;;;;;;;;17.50;64.60;;;;;;5020454;28;863;-70
2023/01/21 04:12:29;;;;;;;;;;;17.50;64.60;;;;;;5021024;28;1047;-69
2023/01/21 04:14:55;;;;;;;;;;;17.50;64.60;;;;;;5020994;28;1914;-70
2023/01/21 04:17:21;;;;;;;;;;;17.50;64.60;;;;;;5023370;28;1267;-70
2023/01/21 04:19:46;;;;;;;;;;;17.50;64.60;;;;;;5022374;28;1644;-70
2023/01/21 04:22:12;;;;;;;;;;;17.50;64.60;;;;;;5021929;28;995;-70
2023/01/21 04:24:37;;;;;;;;;;;17.50;64.60;;;;;;5022218;28;806;-69
2023/01/21 04:27:03;;;;;;;;;;;17.40;64.60;;;;;;5021138;28;1407;-69
2023/01/21 04:29:28;;;;;;;;;;;17.50;64.60;;;;;;5023115;28;1069;-69
2023/01/21 04:31:54;;;;;;;;;;;17.50;64.60;;;;;;5020251;28;895;-69
2023/01/21 04:34:19;;;;;;;;;;;17.50;64.60;;;;;;5020240;28;1323;-71
2023/01/21 04:36:45;;;;;;;;;;;17.40;64.60;;;;;;5024934;28;1906;-72
2023/01/21 04:39:11;;;;;;;;;;;17.50;64.70;;;;;;5022047;28;859;-72
2023/01/21 04:41:36;;;;;;;;;;;17.40;64.60;;;;;;5021667;28;855;-72
2023/01/21 04:44:02;;;;;;;;;;;17.50;64.70;;;;;;5021129;28;1058;-72
2023/01/21 04:46:27;;;;;;;;;;;17.40;64.60;;;;;;5020296;28;1280;-70
2023/01/21 04:48:52;;;;;;;;;;;17.40;64.60;;;;;;5021305;28;899;-70
2023/01/21 04:51:18;;;;;;;;;;;17.40;64.60;;;;;;5019752;28;877;-70
2023/01/21 04:53:43;;;;;;;;;;;17.50;64.70;;;;;;5021092;28;1061;-71
2023/01/21 04:56:09;;;;;;;;;;;17.40;64.60;;;;;;5020735;28;1967;-71
2023/01/21 04:58:34;;;;;;;;;;;17.40;64.60;;;;;;5019717;28;1289;-70
2023/01/21 05:01:00;;;;;;;;;;;17.40;64.70;;;;;;5019178;28;907;-70
2023/01/21 05:03:26;;;;;;;;;;;17.40;64.60;;;;;;5027914;28;1551;-71
2023/01/21 05:05:52;;;;;;;;;;;17.40;64.60;;;;;;5019226;28;860;-71
2023/01/21 05:08:17;;;;;;;;;;;17.40;64.60;;;;;;5020870;28;1508;-70
2023/01/21 05:10:43;;;;;;;;;;;17.50;64.60;;;;;;5018658;28;922;-69
2023/01/21 05:13:08;;;;;;;;;;;17.50;64.60;;;;;;5017359;28;843;-69
2023/01/21 05:15:34;;;;;;;;;;;17.50;64.50;;;;;;5018038;28;1930;-70
2023/01/21 05:17:59;;;;;;;;;;;17.50;64.40;;;;;;5019246;28;1277;-70
2023/01/21 05:20:25;;;;;;;;;;;17.60;64.40;;;;;;5021977;28;866;-69
2023/01/21 05:22:50;;;;;;;;;;;17.60;64.20;;;;;;5018402;28;859;-69
2023/01/21 05:25:16;;;;;;;;;;;17.60;64.00;;;;;;5020271;28;958;-69
2023/01/21 05:27:41;;;;;;;;;;;17.70;63.90;;;;;;5018724;28;1374;-71
2023/01/21 05:30:07;;;;;;;;;;;17.70;63.80;;;;;;5018834;28;1026;-69
2023/01/21 05:32:34;;;;;;;;;;;17.70;63.60;;;;;;5019887;28;1527;-71
2023/01/21 05:35:00;;;;;;;;;;;17.80;63.50;;;;;;5048723;28;1955;-71
2023/01/21 05:37:25;;;;;;;;;;;17.80;63.40;;;;;;5017777;28;1276;-69
2023/01/21 05:39:50;;;;;;;;;;;17.80;63.40;;;;;;5020435;28;998;-70
2023/01/21 05:42:16;;;;;;;;;;;17.90;63.30;;;;;;5020350;28;808;-71
2023/01/21 05:44:41;;;;;;;;;;;17.90;63.20;;;;;;5017268;28;918;-70
2023/01/21 05:47:07;;;;;;;;;;;17.90;63.10;;;;;;5018333;28;1355;-70
2023/01/21 05:49:33;;;;;;;;;;;17.90;63.00;;;;;;5021451;28;902;-70
2023/01/21 05:51:58;;;;;;;;;;;17.90;62.90;;;;;;5022369;28;891;-70
2023/01/21 05:54:24;;;;;;;;;;;18.00;62.90;;;;;;5021162;28;869;-70
2023/01/21 05:56:49;;;;;;;;;;;18.00;62.80;;;;;;5016991;28;1902;-70
2023/01/21 05:59:15;;;;;;;;;;;18.00;62.80;;;;;;5018863;28;867;-70
2023/01/21 06:01:40;;;;;;;;;;;18.00;62.80;;;;;;5021974;28;868;-70
2023/01/21 06:04:06;;;;;;;;;;;18.00;62.70;;;;;;5022368;28;877;-71
2023/01/21 06:06:31;;;;;;;;;;;18.00;62.70;;;;;;5035088;28;1823;-73
2023/01/21 06:08:57;;;;;;;;;;;18.00;62.70;;;;;;5016122;28;2083;-72
2023/01/21 06:11:23;;;;;;;;;;;18.00;62.60;;;;;;5019411;28;1356;-73
2023/01/21 06:13:48;;;;;;;;;;;18.00;62.50;;;;;;5020829;28;1424;-71
2023/01/21 06:16:14;;;;;;;;;;;18.10;62.50;;;;;;5034989;28;1973;-72
2023/01/21 06:18:39;;;;;;;;;;;18.10;62.50;;;;;;5020019;28;1251;-72
2023/01/21 06:21:04;;;;;;;;;;;18.10;62.60;;;;;;5035770;28;1289;-70
2023/01/21 06:23:30;;;;;;;;;;;18.10;62.50;;;;;;5051079;28;848;-72
2023/01/21 06:26:01;;;;;;;;;;;18.10;62.50;;;;;;5014864;28;812;-72
2023/01/21 06:28:27;;;;;;;;;;;18.10;62.50;;;;;;5021091;28;1288;-71
2023/01/21 06:30:53;;;;;;;;;;;18.10;62.40;;;;;;5049376;28;1386;-71
2023/01/21 06:33:18;;;;;;;;;;;18.10;62.50;;;;;;5020934;28;867;-71
2023/01/21 06:35:44;;;;;;;;;;;18.10;62.40;;;;;;5016516;28;1910;-70
2023/01/21 06:38:09;;;;;;;;;;;18.10;62.40;;;;;;5049307;28;1310;-70
2023/01/21 06:40:35;;;;;;;;;;;18.10;62.40;;;;;;5034512;28;900;-70
2023/01/21 06:43:00;;;;;;;;;;;18.10;62.30;;;;;;5020775;28;793;-71
2023/01/21 06:45:26;;;;;;;;;;;18.10;62.40;;;;;;5049006;28;860;-70
2023/01/21 06:47:51;;;;;;;;;;;18.10;62.40;;;;;;5016248;28;1276;-69
2023/01/21 06:50:17;;;;;;;;;;;18.10;62.40;;;;;;5019592;28;1745;-70
2023/01/21 06:52:43;;;;;;;;;;;18.10;62.40;;;;;;5019567;28;1260;-70
2023/01/21 06:55:08;;;;;;;;;;;18.10;62.30;;;;;;5025452;28;1910;-70
2023/01/21 06:57:34;;;;;;;;;;;18.10;62.30;;;;;;5019198;28;1256;-69
2023/01/21 06:59:59;;;;;;;;;;;18.10;62.30;;;;;;5019107;28;931;-70
2023/01/21 07:02:25;;;;;;;;;;;18.10;62.40;;;;;;5018002;28;938;-72
2023/01/21 07:04:50;;;;;;;;;;;18.10;62.40;;;;;;5018581;28;878;-72
2023/01/21 07:07:16;;;;;;;;;;;18.10;62.40;;;;;;5020279;28;1351;-72
2023/01/21 07:09:42;;;;;;;;;;;18.10;62.40;;;;;;5039950;28;1482;-72
2023/01/21 07:12:07;;;;;;;;;;;18.10;62.40;;;;;;5019433;28;879;-72
2023/01/21 07:14:32;;;;;;;;;;;18.10;62.40;;;;;;5019957;28;832;-70
2023/01/21 07:16:58;;;;;;;;;;;18.10;62.40;;;;;;5030959;28;1960;-70
2023/01/21 07:19:23;;;;;;;;;;;18.10;62.40;;;;;;5017223;28;1053;-71
2023/01/21 07:21:49;;;;;;;;;;;18.10;62.50;;;;;;5018835;28;903;-70
2023/01/21 07:24:14;;;;;;;;;;;18.10;62.50;;;;;;5017043;28;896;-70
2023/01/21 07:26:40;;;;;;;;;;;18.10;62.50;;;;;;5017448;28;1325;-71
2023/01/21 07:29:06;;;;;;;;;;;18.10;62.60;;;;;;5016863;28;926;-70
2023/01/21 07:31:31;;;;;;;;;;;18.10;62.50;;;;;;5020284;28;1137;-70
2023/01/21 07:33:57;;;;;;;;;;;18.10;62.60;;;;;;5049206;28;911;-71
2023/01/21 07:36:22;;;;;;;;;;;18.10;62.60;;;;;;5021407;28;1894;-71
2023/01/21 07:38:48;;;;;;;;;;;18.10;62.60;;;;;;5017110;28;1292;-71
2023/01/21 07:41:13;;;;;;;;;;;18.00;62.60;;;;;;5018530;28;843;-71
2023/01/21 07:43:38;;;;;;;;;;;18.00;62.60;;;;;;5020469;28;868;-70
2023/01/21 07:46:04;;;;;;;;;;;18.00;62.70;;;;;;5016780;28;1502;-71
2023/01/21 07:48:29;;;;;;;;;;;18.00;62.70;;;;;;5019935;28;1274;-71
2023/01/21 07:50:55;;;;;;;;;;;18.00;62.70;;;;;;5018717;28;823;-73
2023/01/21 07:53:21;;;;;;;;;;;18.00;62.80;;;;;;5032059;28;816;-71
2023/01/21 07:55:46;;;;;;;;;;;18.00;62.80;;;;;;5034822;28;1914;-70
2023/01/21 07:58:12;;;;;;;;;;;18.00;62.90;;;;;;5034552;28;2025;-71
2023/01/21 08:00:37;;;;;;;;;;;18.00;62.90;;;;;;5022677;28;1962;-71
2023/01/21 08:03:03;;;;;;;;;;;18.00;62.90;;;;;;5024806;28;1242;-69
2023/01/21 08:05:28;;;;;;;;;;;18.00;62.90;;;;;;5020557;28;1388;-71
2023/01/21 08:07:55;;;;;;;;;;;17.90;62.90;;;;;;5022651;28;1350;-70
2023/01/21 08:10:21;;;;;;;;;;;18.00;63.00;;;;;;5023773;28;1010;-70
2023/01/21 08:12:46;;;;;;;;;;;17.90;62.90;;;;;;5023198;28;798;-69
2023/01/21 08:15:12;;;;;;;;;;;17.90;63.00;;;;;;5051585;28;1902;-70
2023/01/21 08:17:38;;;;;;;;;;;17.90;62.90;;;;;;5020948;28;1335;-69
2023/01/21 08:20:04;;;;;;;;;;;17.90;63.00;;;;;;5023815;28;843;-70
2023/01/21 08:22:29;;;;;;;;;;;18.00;62.90;;;;;;5020749;28;872;-70
2023/01/21 08:24:55;;;;;;;;;;;18.00;62.90;;;;;;5022517;28;1807;-70
2023/01/21 08:27:20;;;;;;;;;;;18.00;62.90;;;;;;5019570;28;1356;-70
2023/01/21 08:29:47;;;;;;;;;;;18.00;62.90;;;;;;5036309;28;1085;-70
2023/01/21 08:32:13;;;;;;;;;;;18.00;62.80;;;;;;5021728;28;910;-70
2023/01/21 08:34:38;;;;;;;;;;;18.00;62.80;;;;;;5023668;28;1899;-70
2023/01/21 08:37:03;;;;;;;;;;;18.00;62.70;;;;;;5054069;28;1437;-70
2023/01/21 08:39:29;;;;;;;;;;;18.00;62.70;;;;;;5023999;28;899;-69
2023/01/21 08:41:54;;;;;;;;;;;18.10;62.70;;;;;;5024682;28;902;-70
2023/01/21 08:44:20;;;;;;;;;;;18.10;62.70;;;;;;5021400;28;887;-69
2023/01/21 08:46:45;;;;;;;;;;;18.10;62.60;;;;;;5020420;28;1393;-69
2023/01/21 08:49:11;;;;;;;;;;;18.10;62.60;;;;;;5022967;28;851;-70
2023/01/21 08:51:36;;;;;;;;;;;18.10;62.50;;;;;;5020151;28;871;-71
2023/01/21 08:54:03;;;;;;;;;;;18.10;62.60;;;;;;5018474;28;911;-70
2023/01/21 08:56:28;;;;;;;;;;;18.10;62.50;;;;;;5020445;28;1890;-70
2023/01/21 08:58:57;;;;;;;;;;;18.10;62.40;;;;;;5018341;28;823;-70
2023/01/21 09:01:23;;;;;;;;;;;18.10;62.40;;;;;;5019047;28;816;-70
2023/01/21 09:03:52;;;;;;;;;;;18.10;62.40;;;;;;5022500;28;1352;-70
2023/01/21 09:06:18;;;;;;;;;;;18.10;62.40;;;;;;5017483;28;1041;-69
2023/01/21 09:08:43;;;;;;;;;;;18.10;63.10;;;;;;5018250;28;1265;-70
2023/01/21 09:11:08;;;;;;;;;;;18.10;62.30;;;;;;5017570;28;1287;-70
2023/01/21 09:13:36;;;;;;;;;;;18.10;62.30;;;;;;5022856;28;800;-69
2023/01/21 09:16:01;;;;;;;;;;;18.10;62.30;;;;;;5050147;28;1922;-70
2023/01/21 09:18:27;;;;;;;;;;;18.20;62.30;;;;;;5019790;28;1269;-70
2023/01/21 09:20:52;;;;;;;;;;;18.20;62.30;;;;;;5018408;28;793;-70
2023/01/21 09:23:24;;;;;;;;;;;18.20;62.30;;;;;;5022036;28;793;-70
2023/01/21 09:25:50;;;;;;;;;;;18.20;62.30;;;;;;5049323;28;1270;-70
2023/01/21 09:28:16;;;;;;;;;;;18.10;62.20;;;;;;5020274;28;1402;-71
2023/01/21 09:30:41;;;;;;;;;;;18.20;62.30;;;;;;5021283;28;871;-70
2023/01/21 09:33:07;;;;;;;;;;;18.20;62.30;;;;;;5018196;28;869;-70
2023/01/21 09:35:32;;;;;;;;;;;18.20;62.20;;;;;;5021388;28;1910;-70
2023/01/21 09:37:58;;;;;;;;;;;18.20;62.30;;;;;;5019861;28;1265;-70
2023/01/21 09:40:23;;;;;;;;;;;18.20;62.20;;;;;;5020283;28;915;-70
2023/01/21 09:42:49;;;;;;;;;;;18.20;62.20;;;;;;5020178;28;828;-70
2023/01/21 09:45:14;;;;;;;;;;;18.20;62.20;;;;;;5021800;28;1011;-70
2023/01/21 09:47:40;;;;;;;;;;;18.20;62.20;;;;;;5020232;28;1280;-70
2023/01/21 09:50:07;;;;;;;;;;;18.20;62.20;;;;;;5021281;28;891;-70
2023/01/21 09:52:38;;;;;;;;;;;18.20;62.20;;;;;;5050407;28;1436;-70
2023/01/21 09:55:04;;;;;;;;;;;18.20;62.20;;;;;;5048665;28;1902;-70
2023/01/21 09:57:49;;;;;;;;;;;18.20;62.20;;;;;;5019348;28;1271;-70
2023/01/21 10:00:14;;;;;;;;;;;18.20;62.20;;;;;;5018808;28;828;-70
2023/01/21 10:02:59;;;;;;;;;;;18.20;62.20;;;;;;5019768;28;917;-69
2023/01/21 10:05:45;;;;;;;;;;;18.20;62.20;;;;;;5018444;28;871;-70
2023/01/21 10:08:20;;;;;;;;;;;18.20;62.20;;;;;;5017416;28;1401;-70
2023/01/21 10:10:45;;;;;;;;;;;18.20;62.20;;;;;;5019462;28;824;-70
2023/01/21 10:13:21;;;;;;;;;;;18.20;62.20;;;;;;5017867;28;845;-70
2023/01/21 10:15:52;;;;;;;;;;;18.20;62.20;;;;;;5026298;28;1979;-71
2023/01/21 10:18:19;;;;;;;;;;;18.20;62.20;;;;;;5019502;28;2254;-70
2023/01/21 10:20:44;;;;;;;;;;;18.20;62.20;;;;;;5022396;28;1246;-69
2023/01/21 10:23:28;;;;;;;;;;;18.20;62.20;;;;;;5020746;28;1545;-69
2023/01/21 10:25:53;;;;;;;;;;;18.20;62.20;;;;;;5021288;28;1255;-70
2023/01/21 10:28:22;;;;;;;;;;;18.20;62.20;;;;;;5021757;28;1273;-70
2023/01/21 10:30:52;;;;;;;;;;;18.20;62.20;;;;;;5020288;28;875;-70
2023/01/21 10:33:21;;;;;;;;;;;18.20;62.20;;;;;;5020496;28;857;-70
2023/01/21 10:35:49;;;;;;;;;;;18.20;62.20;;;;;;5017891;28;1906;-70
2023/01/21 10:38:18;;;;;;;;;;;18.20;62.20;;;;;;5019186;28;1406;-70
2023/01/21 10:40:47;;;;;;;;;;;18.20;62.20;;;;;;5018335;28;923;-70
2023/01/21 10:43:27;;;;;;;;;;;18.20;62.20;;;;;;5021069;28;884;-70
2023/01/21 10:46:11;;;;;;;;;;;18.20;62.20;;;;;;5052907;28;843;-71
2023/01/21 10:48:43;;;;;;;;;;;18.20;62.20;;;;;;5018960;28;1309;-71
2023/01/21 10:51:14;;;;;;;;;;;18.20;62.20;;;;;;5018070;28;918;-71
2023/01/21 10:53:39;;;;;;;;;;;18.20;62.20;;;;;;5017166;28;818;-71
2023/01/21 10:56:08;;;;;;;;;;;18.20;62.20;;;;;;5017605;28;1906;-72
2023/01/21 10:58:41;;;;;;;;;;;18.20;62.20;;;;;;5017371;28;1351;-70
2023/01/21 11:01:08;;;;;;;;;;;18.20;62.20;;;;;;5050844;28;1215;-71
2023/01/21 11:03:33;;;;;;;;;;;18.20;62.20;;;;;;5021294;28;930;-70
2023/01/21 11:05:59;;;;;;;;;;;18.20;62.20;;;;;;5018909;28;895;-70
2023/01/21 11:08:24;;;;;;;;;;;18.20;62.20;;;;;;5023069;28;1605;-70
2023/01/21 11:10:52;;;;;;;;;;;18.20;62.20;;;;;;5017944;28;1363;-70
2023/01/21 11:13:17;;;;;;;;;;;18.20;62.20;;;;;;5051617;28;888;-70
2023/01/21 11:15:47;;;;;;;;;;;18.20;62.20;;;;;;5016901;28;1972;-70
2023/01/21 11:18:25;;;;;;;;;;;18.20;62.20;;;;;;5027131;28;1251;-70
2023/01/21 11:20:50;;;;;;;;;;;18.20;62.20;;;;;;5021194;28;860;-70
2023/01/21 11:23:33;;;;;;;;;;;18.20;62.30;;;;;;5032439;28;1030;-70
2023/01/21 11:25:59;;;;;;;;;;;18.20;62.30;;;;;;5051005;28;1231;-70
2023/01/21 11:28:25;;;;;;;;;;;18.20;62.20;;;;;;5018870;28;1395;-70
2023/01/21 11:31:11;;;;;;;;;;;18.20;62.20;;;;;;5022539;28;872;-70
2023/01/21 11:33:36;;;;;;;;;;;18.20;62.30;;;;;;5017236;28;852;-70
2023/01/21 11:36:09;;;;;;;;;;;18.20;62.30;;;;;;5024366;28;1910;-71
2023/01/21 11:38:34;;;;;;;;;;;18.20;62.20;;;;;;5024255;28;1371;-70
2023/01/21 11:41:06;;;;;;;;;;;18.20;62.20;;;;;;5021794;28;861;-71
2023/01/21 11:43:33;;;;;;;;;;;18.20;62.30;;;;;;5023219;28;934;-70
2023/01/21 11:45:59;;;;;;;;;;;18.10;62.20;;;;;;5053011;28;877;-70
2023/01/21 11:48:24;;;;;;;;;;;18.20;62.30;;;;;;5052168;28;1268;-71
2023/01/21 11:50:50;;;;;;;;;;;18.20;63.10;;;;;;5022039;28;850;-70
2023/01/21 11:53:16;;;;;;;;;;;18.20;62.30;;;;;;5025295;28;1402;-69
2023/01/21 11:55:52;;;;;;;;;;;18.20;62.30;;;;;;5027098;28;2001;-70
2023/01/21 11:58:18;;;;;;;;;;;18.10;62.30;;;;;;5055022;28;1231;-69
2023/01/21 12:00:43;;;;;;;;;;;18.20;62.30;;;;;;5024743;28;935;-70
2023/01/21 12:03:10;;;;;;;;;;;18.20;62.30;;;;;;5025300;28;1693;-70
2023/01/21 12:05:36;;;;;;;;;;;18.10;62.30;;;;;;5037051;28;1489;-70
2023/01/21 12:08:02;;;;;;;;;;;18.10;62.30;;;;;;5021987;28;2095;-70
2023/01/21 12:10:30;;;;;;;;;;;18.20;62.40;;;;;;5054600;28;1582;-70
2023/01/21 12:13:02;;;;;;;;;;;18.10;62.30;;;;;;5021483;28;1318;-70
2023/01/21 12:15:38;;;;;;;;;;;18.10;62.30;;;;;;5020112;28;1918;-70
2023/01/21 12:18:06;;;;;;;;;;;18.10;62.30;;;;;;5050189;28;1326;-71
2023/01/21 12:20:34;;;;;;;;;;;18.20;62.30;;;;;;5021913;28;884;-70
2023/01/21 12:23:18;;;;;;;;;;;18.20;62.40;;;;;;5055560;28;878;-70
2023/01/21 12:26:19;;;;;;;;;;;18.20;62.30;;;;;;5022051;28;859;-70
2023/01/21 12:28:48;;;;;;;;;;;18.20;62.30;;;;;;5005218;28;1328;-70
2023/01/21 12:31:31;;;;;;;;;;;18.20;62.30;;;;;;5018449;28;1018;-70
2023/01/21 12:34:00;;;;;;;;;;;18.20;62.30;;;;;;5051707;28;923;-70
2023/01/21 12:36:29;;;;;;;;;;;18.20;62.30;;;;;;5020326;28;1965;-70
2023/01/21 12:39:04;;;;;;;;;;;18.20;62.30;;;;;;5028469;28;1179;-70
2023/01/21 12:41:29;;;;;;;;;;;18.20;62.30;;;;;;5023736;28;870;-70
2023/01/21 12:44:15;;;;;;;;;;;18.20;62.30;;;;;;5036587;28;1592;-71
2023/01/21 12:46:43;;;;;;;;;;;18.20;62.30;;;;;;5022845;28;1271;-71
2023/01/21 12:49:24;;;;;;;;;;;18.20;62.30;;;;;;5019843;28;2292;-71
2023/01/21 12:52:00;;;;;;;;;;;18.20;62.30;;;;;;5020379;28;1364;-70
2023/01/21 12:54:35;;;;;;;;;;;18.20;62.30;;;;;;5050885;28;1365;-69
2023/01/21 12:57:05;;;;;;;;;;;18.20;62.20;;;;;;5051413;28;1977;-70
2023/01/21 12:59:30;;;;;;;;;;;18.20;62.50;;;;;;5020425;28;2122;-70
2023/01/21 13:01:58;;;;;;;;;;;18.20;62.20;;;;;;5020050;28;1318;-71
2023/01/21 13:04:38;;;;;;;;;;;18.20;62.20;;;;;;5029687;28;2008;-70
2023/01/21 13:07:06;;;;;;;;;;;18.20;62.20;;;;;;5034349;28;2435;-70
2023/01/21 13:09:47;;;;;;;;;;;18.20;62.10;;;;;;5053616;28;1258;-70
2023/01/21 13:12:19;;;;;;;;;;;18.20;62.10;;;;;;5020837;28;1351;-70
2023/01/21 13:14:46;;;;;;;;;;;18.20;62.10;;;;;;5027381;28;1456;-71
2023/01/21 13:17:13;;;;;;;;;;;18.20;62.10;;;;;;5048422;28;1983;-70
2023/01/21 13:19:39;;;;;;;;;;;18.20;62.10;;;;;;5048634;28;895;-70
2023/01/21 13:22:08;;;;;;;;;;;18.20;62.10;;;;;;5022333;28;1058;-70
2023/01/21 13:25:03;;;;;;;;;;;18.20;62.10;;;;;;5052380;28;830;-71
2023/01/21 13:27:31;;;;;;;;;;;18.20;62.10;;;;;;5021379;28;1798;-70
2023/01/21 13:29:57;;;;;;;;;;;18.20;62.10;;;;;;5021200;28;880;-71
2023/01/21 13:32:41;;;;;;;;;;;18.20;62.10;;;;;;5019703;28;2119;-70
2023/01/21 13:35:06;;;;;;;;;;;18.20;62.10;;;;;;5020193;28;1942;-70
2023/01/21 13:37:50;;;;;;;;;;;18.20;62.10;;;;;;5019682;28;1387;-70
2023/01/21 13:40:37;;;;;;;;;;;18.20;62.20;;;;;;5017384;28;1845;-71
2023/01/21 13:43:21;;;;;;;;;;;18.20;62.20;;;;;;5021605;28;2164;-71
2023/01/21 13:46:02;;;;;;;;;;;18.20;62.20;;;;;;5020576;28;1049;-71
2023/01/21 13:48:30;;;;;;;;;;;18.20;62.30;;;;;;5021176;28;1277;-70
2023/01/21 13:51:02;;;;;;;;;;;18.20;62.30;;;;;;5021986;28;889;-71
2023/01/21 13:53:27;;;;;;;;;;;18.20;62.40;;;;;;5017863;28;814;-70
2023/01/21 13:55:55;;;;;;;;;;;18.10;62.30;;;;;;5016950;28;1891;-70
2023/01/21 13:58:28;;;;;;;;;;;18.20;62.40;;;;;;5051881;28;1349;-70
2023/01/21 14:00:55;;;;;;;;;;;18.10;62.40;;;;;;5021313;28;2101;-71
2023/01/21 14:03:21;;;;;;;;;;;18.10;62.40;;;;;;5018237;28;1367;-72
2023/01/21 14:05:52;;;;;;;;;;;18.10;62.50;;;;;;5020898;28;1276;-71
2023/01/21 14:08:21;;;;;;;;;;;18.10;62.50;;;;;;5020482;28;2230;-70
2023/01/21 14:10:46;;;;;;;;;;;18.10;62.50;;;;;;5034038;28;1371;-69
2023/01/21 14:13:12;;;;;;;;;;;18.10;62.50;;;;;;5019995;28;2004;-69
2023/01/21 14:15:40;;;;;;;;;;;18.10;62.50;;;;;;5023341;28;1906;-70
2023/01/21 14:18:24;;;;;;;;;;;18.10;62.50;;;;;;5017652;28;1548;-69
2023/01/21 14:20:52;;;;;;;;;;;18.10;62.60;;;;;;5019221;28;968;-69
2023/01/21 14:23:31;;;;;;;;;;;18.10;62.60;;;;;;5051055;28;855;-70
2023/01/21 14:26:00;;;;;;;;;;;18.10;62.70;;;;;;5019440;28;1050;-70
2023/01/21 14:28:28;;;;;;;;;;;18.10;62.70;;;;;;5049265;28;1309;-69
2023/01/21 14:30:58;;;;;;;;;;;18.10;62.70;;;;;;5034525;28;1336;-70
2023/01/21 14:33:49;;;;;;;;;;;18.10;62.80;;;;;;5018914;28;2107;-68
2023/01/21 14:36:35;;;;;;;;;;;18.10;62.70;;;;;;5020535;28;1964;-68
2023/01/21 14:39:03;;;;;;;;;;;18.10;63.20;;;;;;5019041;28;988;-68
2023/01/21 14:41:55;;;;;;;;;;;18.10;63.00;;;;;;5019125;28;1003;-68
2023/01/21 14:44:33;;;;;;;;;;;18.10;62.90;;;;;;5016617;28;1147;-69
2023/01/21 14:47:11;;;;;;;;;;;18.10;62.90;;;;;;5035697;28;1353;-69